Time;durP1;ratioP1;P1;durP2;ratioP2;P2;SDS_P1;SDS_P2;PMS_P1;PMS_P2;Temp;Humidity;BMP_temperature;BMP_pressure;BME280_temperature;BME280_humidity;BME280_pressure;Samples;Min_cycle;Max_cycle;Signal;HPM_P1;HPM_P2
2022/05/04 00:01:28;;;;;;;5.18;1.60;;;;;;;13.94;40.89;98478.91;4763827;30;20100;-81
2022/05/04 00:03:53;;;;;;;6.25;1.95;;;;;;;13.98;40.99;98483.09;4727287;30;20036;-82
2022/05/04 00:06:19;;;;;;;3.97;1.85;;;;;;;14.03;40.87;98475.09;4740600;30;20164;-82
2022/05/04 00:08:47;;;;;;;3.80;1.80;;;;;;;13.89;40.78;98467.78;4735115;30;20040;-81
2022/05/04 00:11:14;;;;;;;4.80;1.70;;;;;;;13.92;40.88;98483.31;4746851;30;20071;-82
2022/05/04 00:13:39;;;;;;;;;;;;;;;14.56;40.34;98532.25;4751323;30;20044;-82
2022/05/04 00:16:06;;;;;;;4.70;1.83;;;;;;;14.28;40.01;98495.91;4749003;30;19932;-81
2022/05/04 00:18:32;;;;;;;4.50;1.67;;;;;;;14.27;39.91;98499.41;4750228;30;20103;-81
2022/05/04 00:20:58;;;;;;;;;;;;;;;14.52;40.10;98523.69;4749695;30;20142;-81
2022/05/04 00:23:24;;;;;;;5.50;1.60;;;;;;;14.13;39.97;98479.06;4763368;30;19957;-81
2022/05/04 00:25:50;;;;;;;4.60;1.80;;;;;;;14.20;39.83;98494.44;4751264;30;20493;-80
2022/05/04 00:28:15;;;;;;;;;;;;;;;14.49;39.64;98518.59;4746655;30;20046;-80
2022/05/04 00:30:41;;;;;;;3.78;1.70;;;;;;;14.10;39.69;98466.97;4761523;30;19929;-81
2022/05/04 00:33:06;;;;;;;;;;;;;;;14.35;39.86;98511.28;4744469;30;20091;-80
2022/05/04 00:35:34;;;;;;;3.47;1.50;;;;;;;14.13;39.78;98474.69;4771533;30;19930;-82
2022/05/04 00:37:59;;;;;;;3.67;1.58;;;;;;;14.08;39.99;98481.84;4758564;30;20040;-81
2022/05/04 00:40:25;;;;;;;;;;;;;;;14.29;39.81;98508.88;4757122;30;20095;-80
2022/05/04 00:42:51;;;;;;;4.50;1.60;;;;;;;13.92;40.20;98473.72;4731763;30;19923;-81
2022/05/04 00:45:17;;;;;;;4.50;1.60;;;;;;;13.86;40.37;98481.78;4743210;30;20071;-80
2022/05/04 00:47:42;;;;;;;3.47;1.38;;;;;;;13.90;40.28;98487.75;4773622;30;20047;-82
2022/05/04 00:50:08;;;;;;;8.10;1.60;;;;;;;13.85;40.29;98500.94;4761513;30;20447;-81
2022/05/04 00:52:36;;;;;;;;;;;;;;;13.92;40.29;98519.81;4733557;30;20036;-82
2022/05/04 00:55:05;;;;;;;5.38;1.77;;;;;;;13.82;40.64;98515.84;4769363;30;19951;-81
2022/05/04 01:00:15;;;;;;;4.20;1.67;;;;;;;13.73;41.03;98515.25;4767752;30;20086;-81
2022/05/04 01:02:41;;;;;;;;;;;;;;;13.87;40.59;98526.94;4751411;30;20048;-81
2022/05/04 01:05:09;;;;;;;5.75;1.60;;;;;;;13.79;40.90;98522.03;4764216;30;19985;-81
2022/05/04 01:07:38;;;;;;;7.85;2.15;;;;;;;13.72;40.91;98512.69;4735739;30;20047;-82
2022/05/04 01:10:04;;;;;;;3.42;1.77;;;;;;;13.58;41.27;98492.34;4764477;30;20020;-81
2022/05/04 01:12:31;;;;;;;3.67;1.75;;;;;;;13.53;41.35;98512.50;4742633;30;20044;-82
2022/05/04 01:14:58;;;;;;;6.65;1.80;;;;;;;13.58;41.33;98525.38;4763910;30;20444;-82
2022/05/04 01:17:23;;;;;;;4.55;1.55;;;;;;;13.48;41.40;98491.81;4748958;30;20071;-81
2022/05/04 01:19:49;;;;;;;3.75;1.70;;;;;;;13.41;41.67;98507.69;4745387;30;20060;-81
2022/05/04 01:22:15;;;;;;;;;;;;;;;13.45;41.40;98524.91;4741432;30;20032;-80
2022/05/04 01:24:41;;;;;;;4.80;1.70;;;;;;;13.32;42.18;98528.84;4754920;30;19921;-82
2022/05/04 01:27:12;;;;;;;;;;;;;;;13.47;41.62;98530.94;4734347;30;20039;-80
2022/05/04 01:29:38;;;;;;;3.92;1.80;;;;;;;13.47;41.92;98525.75;4759848;30;20385;-82
2022/05/04 01:32:04;;;;;;;;;;;;;;;13.59;41.25;98537.47;4749536;30;20047;-81
2022/05/04 01:34:30;;;;;;;6.90;2.00;;;;;;;13.29;42.31;98511.56;4763684;30;19921;-82
2022/05/04 01:36:55;;;;;;;;;;;;;;;13.40;41.84;98526.84;4744629;30;20061;-81
2022/05/04 01:39:21;;;;;;;4.55;2.05;;;;;;;13.19;42.72;98516.22;4769995;30;19921;-81
2022/05/04 01:44:32;;;;;;;6.47;2.20;;;;;;;13.06;43.10;98512.31;4780148;30;19926;-81
2022/05/04 01:46:57;;;;;;;8.52;2.60;;;;;;;13.10;43.17;98513.91;4739447;30;20417;-81
2022/05/04 01:49:23;;;;;;;;;;;;;;;13.37;42.33;98534.75;4763353;30;20054;-81
2022/05/04 01:51:49;;;;;;;5.63;2.90;;;;;;;13.06;43.21;98532.28;4758632;30;19925;-82
2022/05/04 01:54:14;;;;;;;;;;;;;;;13.13;42.79;98538.97;4756790;30;20066;-81
2022/05/04 01:56:40;;;;;;;5.85;2.28;;;;;;;12.92;43.22;98527.47;4761657;30;19921;-81
2022/05/04 01:59:06;;;;;;;;;;;;;;;12.78;43.42;98543.53;4759903;30;20051;-82
2022/05/04 02:01:32;;;;;;;7.80;2.65;;;;;;;12.25;45.20;98527.78;4748907;30;19926;-81
2022/05/04 02:03:58;;;;;;;;;;;;;;;12.35;44.37;98550.03;4749739;30;20424;-83
2022/05/04 02:06:23;;;;;;;8.30;2.92;;;;;;;12.28;44.96;98529.44;4777715;30;19992;-82
2022/05/04 02:08:49;;;;;;;;;;;;;;;12.41;44.11;98546.38;4750419;30;20051;-82
2022/05/04 02:11:16;;;;;;;7.55;2.58;;;;;;;11.99;46.23;98540.66;4768591;30;19918;-80
2022/05/04 02:13:41;;;;;;;8.45;2.40;;;;;;;11.81;47.49;98539.38;4761796;30;20140;-81
2022/05/04 02:16:07;;;;;;;;;;;;;;;11.86;46.49;98554.00;4772414;30;20446;-80
2022/05/04 02:18:33;;;;;;;5.10;2.53;;;;;;;11.77;47.75;98550.75;4762310;30;19921;-81
2022/05/04 02:20:58;;;;;;;;;;;;;;;11.95;46.64;98555.50;4755641;30;20048;-81
2022/05/04 02:23:24;;;;;;;4.57;2.05;;;;;;;11.95;47.17;98560.69;4763522;30;19928;-82
2022/05/04 02:25:50;;;;;;;;;;;;;;;12.05;46.88;98562.16;4749251;30;20075;-82
2022/05/04 02:28:16;;;;;;;3.63;2.05;;;;;;;11.70;47.58;98550.94;4782958;29;19936;-82
2022/05/04 02:30:41;;;;;;;;;;;;;;;11.99;46.91;98564.06;4763859;30;20574;-81
2022/05/04 02:33:07;;;;;;;4.30;2.00;;;;;;;11.91;47.73;98572.06;4779037;30;19921;-82
2022/05/04 02:38:18;;;;;;;4.88;2.20;;;;;;;11.68;47.90;98563.13;4778754;30;19921;-81
2022/05/04 02:40:44;;;;;;;3.50;2.00;;;;;;;11.65;48.46;98563.19;4748841;30;20104;-81
2022/05/04 02:43:10;;;;;;;;;;;;;;;11.76;47.69;98575.03;4756776;30;20078;-81
2022/05/04 02:45:35;;;;;;;5.03;2.08;;;;;;;11.43;48.44;98552.50;4751253;30;19948;-82
2022/05/04 02:48:01;;;;;;;;;;;;;;;11.70;47.89;98581.25;4751215;30;20115;-81
2022/05/04 02:50:27;;;;;;;6.68;2.00;;;;;;;11.56;48.13;98557.38;4752047;30;20289;-83
2022/05/04 02:52:53;;;;;;;;;;;;;;;11.78;47.68;98589.72;4747825;30;20051;-81
2022/05/04 02:55:18;;;;;;;3.67;2.10;;;;;;;11.71;47.43;98578.59;4762498;30;19918;-80
2022/05/04 02:57:44;;;;;;;;;;;;;;;11.87;47.02;98593.84;4778634;30;20056;-80
2022/05/04 03:00:10;;;;;;;6.80;1.80;;;;;;;11.64;47.53;98582.28;4788935;30;19917;-83
2022/05/04 03:02:46;;;;;;;4.20;1.95;;;;;;;11.63;47.85;98601.31;4731224;30;20051;-82
2022/05/04 03:05:12;;;;;;;7.47;2.67;;;;;;;11.62;47.34;98575.41;4759249;30;20121;-83
2022/05/04 03:07:38;;;;;;;4.22;2.30;;;;;;;11.87;45.97;98601.66;4738967;30;20038;-81
2022/05/04 03:10:04;;;;;;;;;;;;;;;11.92;46.50;98604.97;4767192;30;20056;-82
2022/05/04 03:12:30;;;;;;;7.65;2.08;;;;;;;11.94;45.14;98553.78;4867152;24;20028;-81
2022/05/04 03:14:55;;;;;;;;;;;;;;;12.13;44.83;98604.38;4757226;30;20060;-82
2022/05/04 03:17:21;;;;;;;8.52;2.30;;;;;;;11.53;45.71;98542.72;4788608;29;19983;-81
2022/05/04 03:19:47;;;;;;;;;;;;;;;12.08;44.90;98610.59;4778370;24;20535;-80
2022/05/04 03:22:13;;;;;;;6.68;2.30;;;;;;;12.19;44.76;98612.03;4761823;30;20412;-82
2022/05/04 03:24:41;;;;;;;;;;;;;;;12.35;44.61;98619.41;4782402;24;20125;-81
2022/05/04 03:27:07;;;;;;;6.57;1.98;;;;;;;12.16;44.69;98591.31;4748189;30;19930;-82
2022/05/04 03:29:33;;;;;;;;;;;;;;;12.61;43.76;98619.50;4720581;30;20055;-81
2022/05/04 03:31:58;;;;;;;4.85;1.90;;;;;;;12.62;43.41;98618.63;4754766;30;19923;-79
2022/05/04 03:34:24;;;;;;;;;;;;;;;12.60;43.86;98623.03;4730011;30;20572;-81
2022/05/04 03:36:50;;;;;;;4.95;1.90;;;;;;;12.14;43.67;98590.50;4750536;30;19921;-81
2022/05/04 03:39:15;;;;;;;;;;;;;;;12.39;44.14;98621.03;4731601;30;20048;-78
2022/05/04 03:41:41;;;;;;;4.18;2.00;;;;;;;12.51;43.53;98619.81;4754964;30;19921;-79
2022/05/04 03:44:11;;;;;;;;;;;;;;;12.63;43.44;98620.31;4763195;30;20389;-81
2022/05/04 03:46:45;;;;;;;3.38;1.60;;;;;;;12.32;43.86;98622.91;4759356;30;19921;-81
2022/05/04 03:49:11;;;;;;;3.72;2.10;;;;;;;12.07;43.75;98596.75;4735621;30;20045;-81
2022/05/04 03:51:36;;;;;;;;;;;;;;;12.48;43.30;98625.97;4728947;30;20041;-81
2022/05/04 03:54:02;;;;;;;4.47;1.73;;;;;;;12.26;43.39;98610.09;4755466;30;19957;-79
2022/05/04 03:56:28;;;;;;;;;;;;;;;12.77;42.64;98625.09;4754799;30;20083;-83
2022/05/04 03:58:53;;;;;;;3.75;1.60;;;;;;;12.59;42.29;98620.44;4738588;30;19922;-82
2022/05/04 04:01:20;;;;;;;;;;;;;;;12.88;41.99;98632.63;4738913;30;20036;-80
2022/05/04 04:03:46;;;;;;;2.97;1.52;;;;;;;12.42;42.62;98623.53;4737890;30;19928;-81
2022/05/04 04:06:11;;;;;;;;;;;;;;;12.40;42.50;98631.38;4766520;30;20044;-81
2022/05/04 04:08:37;;;;;;;5.10;1.80;;;;;;;12.45;42.23;98626.88;4726413;30;19922;-81
2022/05/04 04:11:03;;;;;;;;;;;;;;;12.68;42.25;98628.81;4753499;30;20051;-79
2022/05/04 04:13:29;;;;;;;3.78;1.90;;;;;;;12.56;41.75;98629.19;4722866;30;19921;-81
2022/05/04 04:15:55;;;;;;;;;;;;;;;12.37;41.71;98633.19;4757822;30;20074;-86
2022/05/04 04:18:21;;;;;;;9.20;1.88;;;;;;;12.12;42.51;98625.22;4725940;30;19926;-83
2022/05/04 04:23:31;;;;;;;4.85;1.70;;;;;;;12.02;42.77;98624.63;4744434;30;20056;-80
2022/05/04 04:25:57;;;;;;;;;;;;;;;12.05;42.85;98639.25;4720851;30;20061;-79
2022/05/04 04:28:22;;;;;;;3.83;1.73;;;;;;;11.96;42.99;98624.78;4747900;30;19922;-80
2022/05/04 04:30:48;;;;;;;;;;;;;;;12.25;42.79;98643.97;4754476;30;20045;-80
2022/05/04 04:33:14;;;;;;;4.53;1.70;;;;;;;12.30;42.33;98632.53;4733384;30;19926;-80
2022/05/04 04:35:40;;;;;;;;;;;;;;;12.61;41.63;98637.72;4721816;30;20501;-79
2022/05/04 04:38:07;;;;;;;5.93;1.60;;;;;;;12.60;41.48;98623.03;4748685;30;19922;-80
2022/05/04 04:40:32;;;;;;;5.30;1.65;;;;;;;12.38;41.78;98621.91;4756294;30;20119;-81
2022/05/04 04:42:59;;;;;;;;;;;;;;;12.35;42.08;98637.59;4741799;30;20143;-79
2022/05/04 04:45:24;;;;;;;3.35;1.40;;;;;;;12.41;42.26;98637.41;4753403;30;20406;-81
2022/05/04 04:47:50;;;;;;;;;;;;;;;12.39;41.68;98639.22;4726387;30;20048;-81
2022/05/04 04:50:16;;;;;;;4.32;1.50;;;;;;;11.79;42.98;98639.94;4757137;30;19925;-81
2022/05/04 04:52:41;;;;;;;;;;;;;;;11.53;43.44;98636.22;4744771;30;20504;-81
2022/05/04 04:55:07;;;;;;;3.25;1.60;;;;;;;11.32;44.01;98636.75;4747671;30;19925;-80
2022/05/04 04:57:33;;;;;;;5.40;1.90;;;;;;;10.94;44.84;98630.66;4752518;30;20052;-81
2022/05/04 04:59:59;;;;;;;;;;;;;;;10.98;45.12;98641.84;4741080;30;20047;-81
2022/05/04 05:02:25;;;;;;;7.07;1.92;;;;;;;10.80;45.72;98641.34;4755458;30;20024;-81
2022/05/04 05:04:51;;;;;;;;;;;;;;;11.11;44.83;98640.69;4741264;30;20047;-80
2022/05/04 05:07:17;;;;;;;5.10;1.70;;;;;;;11.08;45.12;98638.13;4741382;30;19922;-80
2022/05/04 05:09:42;;;;;;;;;;;;;;;11.02;44.49;98641.72;4738213;30;20041;-79
2022/05/04 05:12:08;;;;;;;4.95;1.90;;;;;;;11.00;44.69;98633.16;4745946;30;19922;-80
2022/05/04 05:17:18;;;;;;;5.68;1.80;;;;;;;11.10;44.56;98638.97;4733389;30;20062;-82
2022/05/04 05:19:43;;;;;;;;;;;;;;;11.38;43.96;98642.63;4740640;30;20592;-81
2022/05/04 05:22:09;;;;;;;4.10;1.85;;;;;;;11.62;42.21;98629.94;4754713;30;19970;-80
2022/05/04 05:24:35;;;;;;;;;;;;;;;11.67;42.45;98654.91;4755149;30;20512;-81
2022/05/04 05:27:00;;;;;;;4.60;1.60;;;;;;;11.46;40.87;98647.66;4750815;30;20009;-82
2022/05/04 05:29:26;;;;;;;;;;;;;;;11.55;42.18;98651.78;4738701;30;20486;-81
2022/05/04 05:31:51;;;;;;;4.43;1.70;;;;;;;11.76;40.59;98643.44;4750952;30;20435;-81
2022/05/04 05:34:17;;;;;;;;;;;;;;;12.00;41.35;98654.13;4756914;30;20072;-80
2022/05/04 05:36:44;;;;;;;6.57;1.70;;;;;;;11.99;41.34;98660.22;4756287;30;19933;-81
2022/05/04 05:39:10;;;;;;;3.88;1.60;;;;;;;11.96;40.56;98627.41;4754381;30;20040;-83
2022/05/04 05:41:36;;;;;;;;;;;;;;;12.21;41.03;98649.22;4744201;30;20116;-82
2022/05/04 05:44:01;;;;;;;3.47;1.70;;;;;;;12.30;40.19;98636.88;4741655;30;20402;-82
2022/05/04 05:46:29;;;;;;;;;;;;;;;12.45;39.28;98652.03;4755641;30;20147;-80
2022/05/04 05:48:54;;;;;;;;;;;;;;;12.60;39.36;98654.25;4741202;30;20070;-81
2022/05/04 05:51:20;;;;;;;9.80;1.13;;;;;;;12.65;38.79;98652.34;4737819;30;19922;-81
2022/05/04 05:53:46;;;;;;;;;;;;;;;12.92;38.21;98644.63;4737895;30;20198;-81
2022/05/04 05:56:12;;;;;;;5.63;1.60;;;;;;;12.84;37.45;98641.41;4755380;30;19926;-83
2022/05/04 05:58:37;;;;;;;;;;;;;;;12.83;37.55;98642.28;4755284;30;20052;-81
2022/05/04 06:01:03;;;;;;;5.15;1.20;;;;;;;12.59;36.51;98662.06;4755699;30;19925;-80
2022/05/04 06:03:29;;;;;;;;;;;;;;;12.79;36.65;98674.53;4757452;30;20044;-82
2022/05/04 06:05:55;;;;;;;4.45;1.30;;;;;;;12.26;37.07;98635.25;4726352;30;19932;-81
2022/05/04 06:08:20;;;;;;;;;;;;;;;12.42;37.06;98667.75;4748281;30;20100;-81
2022/05/04 06:10:46;;;;;;;7.00;1.30;;;;;;;12.26;36.85;98658.66;4740154;30;19927;-80
2022/05/04 06:13:11;;;;;;;;;;;;;;;12.07;37.94;98663.50;4759399;30;20065;-84
2022/05/04 06:15:38;;;;;;;4.82;1.27;;;;;;;12.05;37.24;98634.06;4743716;30;20405;-80
2022/05/04 06:18:03;;;;;;;2.85;1.20;;;;;;;12.43;36.82;98638.25;4740386;30;20051;-83
2022/05/04 06:20:29;;;;;;;;;;;;;;;13.05;34.46;98691.97;4713446;30;20497;-81
2022/05/04 06:22:55;;;;;;;15.27;1.63;;;;;;;13.15;32.67;98652.63;4755808;30;19925;-82
2022/05/04 06:25:21;;;;;;;;;;;;;;;13.43;33.13;98683.06;4727690;30;20640;-82
2022/05/04 06:27:46;;;;;;;4.38;1.00;;;;;;;13.33;30.20;98681.59;4755129;30;19926;-81
2022/05/04 06:35:41;;;;;;;12.30;1.70;;;;;;;13.09;31.59;98691.00;4742048;30;20054;-80
2022/05/04 06:38:06;;;;;;;;;;;;;;;13.43;31.98;98681.28;4754670;30;20048;-80
2022/05/04 06:40:32;;;;;;;13.60;1.40;;;;;;;13.37;31.75;98694.50;4754394;30;19922;-82
2022/05/04 06:42:57;;;;;;;;;;;;;;;13.81;31.48;98699.22;4755422;30;20547;-80
2022/05/04 06:45:23;;;;;;;2.22;1.10;;;;;;;13.76;31.61;98688.09;4755507;30;19922;-80
2022/05/04 06:47:49;;;;;;;;;;;;;;;14.04;31.96;98696.69;4741825;30;20047;-81
2022/05/04 06:50:15;;;;;;;2.78;1.30;;;;;;;14.08;31.92;98718.31;4731288;30;19929;-81
2022/05/04 06:52:41;;;;;;;;;;;;;;;14.09;32.15;98702.59;4716599;30;20064;-81
2022/05/04 06:55:07;;;;;;;3.63;1.50;;;;;;;14.01;31.31;98714.19;4740728;30;20397;-82
2022/05/04 06:57:33;;;;;;;16.30;1.73;;;;;;;14.11;29.59;98692.09;4753824;30;20337;-81
2022/05/04 06:59:59;;;;;;;;;;;;;;;14.19;30.23;98709.19;4730202;30;20052;-80
2022/05/04 07:02:25;;;;;;;3.42;1.40;;;;;;;14.12;29.59;98693.84;4744690;30;19971;-81
2022/05/04 07:04:51;;;;;;;3.85;1.20;;;;;;;14.58;28.06;98697.50;4757021;30;20047;-81
2022/05/04 07:07:17;;;;;;;;;;;;;;;14.67;27.94;98723.25;4746952;30;20043;-82
2022/05/04 07:09:43;;;;;;;2.35;1.08;;;;;;;14.56;27.67;98699.28;4725776;30;20318;-80
2022/05/04 07:12:08;;;;;;;;;;;;;;;14.80;28.20;98716.69;4740108;30;20044;-82
2022/05/04 07:14:34;;;;;;;3.30;1.23;;;;;;;15.12;27.02;98699.84;4738151;30;19926;-81
2022/05/04 07:17:00;;;;;;;;;;;;;;;15.48;27.77;98709.75;4728753;30;20127;-81
2022/05/04 07:19:26;;;;;;;4.03;2.50;;;;;;;15.75;26.80;98700.84;4756206;30;19930;-81
2022/05/04 07:21:51;;;;;;;3.70;1.55;;;;;;;15.82;26.45;98698.84;4715106;30;20040;-80
2022/05/04 07:24:17;;;;;;;3.03;1.40;;;;;;;16.12;25.69;98724.66;4740930;30;20135;-82
2022/05/04 07:26:43;;;;;;;3.65;1.27;;;;;;;16.16;24.90;98721.84;4725985;30;20087;-81
2022/05/04 07:29:08;;;;;;;;;;;;;;;15.91;24.79;98727.25;4755685;30;20195;-82
2022/05/04 07:31:35;;;;;;;4.90;1.20;;;;;;;15.60;25.08;98727.56;4755946;30;20436;-80
2022/05/04 07:34:01;;;;;;;4.80;1.23;;;;;;;15.65;26.18;98716.97;4739955;30;20062;-80
2022/05/04 07:36:27;;;;;;;2.67;1.25;;;;;;;15.72;26.15;98694.91;4768893;30;20485;-80
2022/05/04 07:38:53;;;;;;;;;;;;;;;16.16;25.86;98737.53;4739718;30;20055;-80
2022/05/04 07:44:03;;;;;;;11.95;1.38;;;;;;;16.58;24.76;98720.06;4753929;30;20052;-82
2022/05/04 07:46:28;;;;;;;3.72;1.00;;;;;;;16.75;24.70;98731.53;4735979;30;20035;-81
2022/05/04 07:48:55;;;;;;;3.80;1.30;;;;;;;17.05;24.60;98738.97;4748511;30;20086;-81
2022/05/04 07:51:21;;;;;;;3.13;1.20;;;;;;;17.20;23.42;98729.56;4750822;30;20539;-82
2022/05/04 07:53:47;;;;;;;5.10;1.13;;;;;;;17.32;23.05;98725.50;4759246;30;20066;-82
2022/05/04 07:56:13;;;;;;;4.72;1.77;;;;;;;17.66;23.43;98728.25;4723463;30;20041;-79
2022/05/04 07:58:39;;;;;;;2.42;1.00;;;;;;;17.78;22.77;98746.06;4747620;30;20170;-82
2022/05/04 08:06:33;;;;;;;2.80;1.10;;;;;;;17.87;23.13;98736.91;4730317;30;20048;-81
2022/05/04 08:08:59;;;;;;;4.82;1.10;;;;;;;17.89;23.12;98749.94;4738775;30;20566;-80
2022/05/04 08:11:24;;;;;;;4.25;1.00;;;;;;;17.88;23.33;98749.09;4734522;30;20068;-81
2022/05/04 08:13:50;;;;;;;6.72;1.10;;;;;;;17.67;23.43;98745.69;4754775;30;20057;-82
2022/05/04 08:16:16;;;;;;;7.88;1.55;;;;;;;17.81;22.53;98773.91;4727358;30;20051;-81
2022/05/04 08:18:41;;;;;;;3.42;0.90;;;;;;;17.46;21.33;98741.47;4740969;30;20199;-80
2022/05/04 08:21:08;;;;;;;5.05;1.05;;;;;;;17.38;22.17;98756.69;4735847;30;20502;-80
2022/05/04 08:23:34;;;;;;;3.53;0.93;;;;;;;17.83;22.02;98758.97;4757247;30;20043;-82
2022/05/04 08:26:01;;;;;;;3.10;1.50;;;;;;;17.77;21.90;98791.56;4719286;30;20057;-82
2022/05/04 08:28:27;;;;;;;0.90;0.60;;;;;;;18.10;22.00;98762.03;4740646;30;20130;-82
2022/05/04 08:30:52;;;;;;;10.43;1.27;;;;;;;17.94;22.54;98761.06;4709945;30;20044;-81
2022/05/04 08:33:18;;;;;;;2.58;0.80;;;;;;;17.87;23.14;98786.75;4740975;30;20047;-82
2022/05/04 08:35:45;;;;;;;2.78;0.88;;;;;;;17.82;23.70;98782.63;4742558;30;20071;-81
2022/05/04 08:38:12;;;;;;;3.33;0.90;;;;;;;17.74;23.58;98765.50;4756732;30;20078;-80
2022/05/04 08:40:38;;;;;;;5.18;1.40;;;;;;;17.83;23.49;98779.09;4740991;30;20057;-80
2022/05/04 08:43:07;;;;;;;3.33;1.10;;;;;;;18.01;22.77;98772.97;4735804;30;20106;-80
2022/05/04 08:45:37;;;;;;;6.10;1.38;;;;;;;18.17;22.64;98766.03;4728907;30;20048;-82
2022/05/04 08:48:05;;;;;;;3.00;0.70;;;;;;;18.66;20.90;98802.97;4759740;30;20501;-83
2022/05/04 08:50:31;;;;;;;2.13;0.80;;;;;;;18.56;19.99;98783.38;4742165;30;20044;-81
2022/05/04 08:52:57;;;;;;;3.22;0.90;;;;;;;18.30;19.82;98795.16;4725915;30;20049;-80
2022/05/04 08:55:23;;;;;;;3.35;1.17;;;;;;;18.43;20.43;98806.75;4753778;30;20127;-81
2022/05/04 08:57:49;;;;;;;6.50;1.02;;;;;;;18.48;21.04;98788.16;4756728;30;20059;-83
2022/05/04 09:00:15;;;;;;;8.88;1.02;;;;;;;19.06;21.13;98806.22;4728998;30;20111;-80
2022/05/04 09:02:41;;;;;;;7.53;1.05;;;;;;;19.21;20.80;98805.41;4748453;30;20048;-82
2022/05/04 09:05:14;;;;;;;10.07;1.23;;;;;;;19.09;21.38;98811.28;4762291;30;20032;-82
2022/05/04 09:07:39;;;;;;;4.28;1.00;;;;;;;18.89;21.54;98806.25;4736894;30;20135;-81
2022/05/04 09:10:06;;;;;;;5.18;0.93;;;;;;;18.61;22.36;98794.47;4728596;30;20519;-81
2022/05/04 09:12:32;;;;;;;2.42;0.93;;;;;;;18.93;22.49;98820.94;4757391;30;20516;-81
2022/05/04 09:14:59;;;;;;;2.42;0.85;;;;;;;19.08;22.35;98812.22;4740677;30;20158;-81
2022/05/04 09:17:25;;;;;;;5.80;1.00;;;;;;;18.90;21.74;98806.16;4751568;30;20052;-81
2022/05/04 09:22:40;;;;;;;4.85;1.35;;;;;;;20.29;20.27;98824.06;4745388;30;20058;-81
2022/05/04 09:25:18;;;;;;;5.10;2.15;;;;;;;20.74;19.98;98817.94;4743662;30;20063;-82
2022/05/04 09:27:44;;;;;;;6.72;1.08;;;;;;;21.11;19.02;98826.28;4714917;30;20040;-81
2022/05/04 09:30:11;;;;;;;3.20;0.93;;;;;;;20.72;19.10;98805.81;4726431;30;20501;-82
2022/05/04 09:32:41;;;;;;;2.83;1.20;;;;;;;20.36;19.67;98801.69;4748264;30;20501;-83
2022/05/04 09:35:16;;;;;;;4.40;1.13;;;;;;;19.95;19.90;98812.81;4739445;30;20404;-81
2022/05/04 09:46:02;;;;;;;;;;;;;;;20.06;20.22;98849.03;4746371;30;20048;-81
2022/05/04 09:48:29;;;;;;;2.47;0.85;;;;;;;20.31;18.60;98873.09;4759619;30;19918;-81
2022/05/04 09:51:03;;;;;;;4.90;1.00;;;;;;;20.80;18.49;98849.22;4743127;30;20052;-80
2022/05/04 09:53:29;;;;;;;4.20;0.98;;;;;;;21.14;18.13;98849.84;4759545;30;20130;-82
2022/05/04 09:55:55;;;;;;;3.83;0.98;;;;;;;21.54;17.15;98852.72;4710585;30;20542;-81
2022/05/04 09:58:23;;;;;;;4.03;1.00;;;;;;;21.24;16.97;98864.16;4720192;30;20058;-82
2022/05/04 10:00:48;;;;;;;3.47;0.90;;;;;;;20.85;17.40;98871.78;4745886;30;20047;-82
2022/05/04 10:03:15;;;;;;;4.70;1.38;;;;;;;20.62;17.48;98845.03;4709777;30;20127;-81
2022/05/04 10:05:41;;;;;;;2.33;0.98;;;;;;;21.01;17.19;98867.31;4711069;30;20105;-81
2022/05/04 10:08:07;;;;;;;3.08;0.90;;;;;;;20.86;17.37;98868.25;4740485;30;20541;-83
2022/05/04 10:10:32;;;;;;;3.53;0.85;;;;;;;20.52;17.68;98878.09;4752054;30;20051;-81
2022/05/04 10:12:58;;;;;;;2.00;0.90;;;;;;;20.16;18.06;98866.06;4755191;30;20097;-81
2022/05/04 10:15:25;;;;;;;7.03;1.00;;;;;;;19.89;18.21;98875.47;4732904;30;20055;-83
2022/05/04 10:17:53;;;;;;;6.45;1.23;;;;;;;19.70;18.51;98892.25;4747043;30;20075;-81
2022/05/04 10:20:20;;;;;;;6.43;1.00;;;;;;;19.41;18.50;98870.09;4729810;30;20047;-81
2022/05/04 10:22:57;;;;;;;5.28;0.90;;;;;;;19.37;19.01;98886.09;4725543;30;20543;-81
2022/05/04 10:25:24;;;;;;;5.65;1.00;;;;;;;19.28;19.05;98874.28;4740132;30;20437;-81
2022/05/04 10:27:50;;;;;;;4.65;1.02;;;;;;;19.59;18.89;98881.41;4718648;30;20048;-82
2022/05/04 10:30:31;;;;;;;6.70;3.92;;;;;;;19.97;18.82;98871.47;4732359;30;20428;-81
2022/05/04 10:33:08;;;;;;;5.32;1.02;;;;;;;20.90;17.61;98865.34;4735309;30;20509;-81
2022/05/04 10:35:44;;;;;;;4.50;1.00;;;;;;;21.79;17.14;98887.19;4743454;30;20032;-83
2022/05/04 10:38:13;;;;;;;3.72;1.10;;;;;;;22.00;15.86;98886.81;4765998;30;20048;-81
2022/05/04 10:40:40;;;;;;;3.90;1.40;;;;;;;21.86;16.02;98892.09;4743447;30;20036;-82
2022/05/04 10:43:07;;;;;;;4.78;0.90;;;;;;;21.42;16.13;98916.78;4750934;30;20048;-81
2022/05/04 10:45:37;;;;;;;4.55;1.25;;;;;;;21.07;16.47;98906.50;4722727;30;20051;-82
2022/05/04 10:48:18;;;;;;;11.57;1.25;;;;;;;20.03;17.07;98928.22;4758910;30;20048;-81
2022/05/04 10:51:10;;;;;;;2.88;0.80;;;;;;;19.86;17.16;98929.13;4755533;30;20203;-83
2022/05/04 10:53:37;;;;;;;2.55;0.80;;;;;;;19.80;17.53;98914.50;4720908;30;20048;-80
2022/05/04 10:56:05;;;;;;;3.22;0.98;;;;;;;20.22;17.81;98918.38;4752646;30;20524;-81
2022/05/04 10:58:39;;;;;;;3.25;0.90;;;;;;;21.09;17.61;98912.56;4735983;30;20052;-84
2022/05/04 11:01:18;;;;;;;3.38;1.13;;;;;;;21.85;16.55;98916.78;4762692;30;20055;-81
2022/05/04 11:04:09;;;;;;;3.67;1.10;;;;;;;22.24;16.32;98935.47;4758300;30;20087;-81
2022/05/04 11:06:49;;;;;;;11.77;1.63;;;;;;;21.57;15.16;98897.38;4759555;30;20055;-83
2022/05/04 11:09:17;;;;;;;3.53;1.00;;;;;;;21.18;15.64;98927.84;4747498;30;20052;-81
2022/05/04 11:11:44;;;;;;;2.35;0.82;;;;;;;20.91;15.70;98930.31;4726946;30;20036;-82
2022/05/04 11:14:11;;;;;;;4.43;1.00;;;;;;;20.34;16.23;98939.69;4752815;30;20047;-84
2022/05/04 11:16:38;;;;;;;3.97;1.10;;;;;;;20.12;16.85;98929.50;4739005;30;20037;-82
2022/05/04 11:19:05;;;;;;;2.67;0.80;;;;;;;20.14;17.31;98946.91;4741419;30;20076;-84
2022/05/04 11:21:37;;;;;;;3.97;0.98;;;;;;;20.02;17.58;98932.63;4761825;30;20054;-84
2022/05/04 11:24:26;;;;;;;4.40;1.00;;;;;;;20.15;17.92;98951.22;4747565;30;20054;-82
2022/05/04 11:26:53;;;;;;;3.35;1.13;;;;;;;19.75;18.53;98916.53;4771967;30;20051;-83
2022/05/04 11:29:29;;;;;;;5.03;0.90;;;;;;;19.78;18.27;98932.16;4742908;30;20044;-81
2022/05/04 11:31:56;;;;;;;4.30;0.90;;;;;;;19.78;18.29;98931.31;4755532;30;20070;-80
2022/05/04 11:34:26;;;;;;;3.45;2.08;;;;;;;19.23;18.79;98945.53;4745247;30;20282;-82
2022/05/04 11:36:53;;;;;;;4.70;0.80;;;;;;;19.32;18.60;98959.13;4761347;30;20091;-83
2022/05/04 11:39:20;;;;;;;5.07;0.90;;;;;;;19.10;18.79;98960.22;4730636;30;20079;-82
2022/05/04 11:41:50;;;;;;;5.85;0.90;;;;;;;18.77;19.21;98974.09;4742648;30;20052;-82
2022/05/04 11:44:18;;;;;;;2.58;0.95;;;;;;;18.63;19.18;98954.63;4712862;30;20103;-81
2022/05/04 11:46:47;;;;;;;4.75;0.88;;;;;;;18.32;19.81;98958.72;4757190;30;20052;-82
2022/05/04 11:49:12;;;;;;;4.05;0.80;;;;;;;18.46;19.71;98956.31;4737688;30;20040;-81
2022/05/04 11:51:38;;;;;;;3.55;0.80;;;;;;;18.51;19.76;98983.22;4734000;30;20113;-82
2022/05/04 11:54:04;;;;;;;1.98;0.90;;;;;;;18.36;19.83;98969.94;4729271;30;20548;-82
2022/05/04 11:56:30;;;;;;;4.38;0.98;;;;;;;18.19;20.46;98987.31;4744509;30;20082;-81
2022/05/04 11:58:57;;;;;;;14.32;1.10;;;;;;;18.04;20.70;98973.09;4726602;30;20056;-81
2022/05/04 12:01:23;;;;;;;5.65;1.10;;;;;;;17.96;20.66;98985.75;4727660;30;20044;-84
2022/05/04 12:03:49;;;;;;;11.32;1.35;;;;;;;18.13;20.50;98997.25;4736302;30;20055;-83
2022/05/04 12:06:15;;;;;;;5.38;1.50;;;;;;;17.85;20.49;98992.38;4753790;30;20052;-82
2022/05/04 12:08:41;;;;;;;4.45;1.52;;;;;;;17.79;20.50;99014.50;4724877;30;20052;-83
2022/05/04 12:11:08;;;;;;;3.13;0.98;;;;;;;17.57;20.80;99014.53;4741075;30;20048;-84
2022/05/04 12:13:38;;;;;;;6.28;1.10;;;;;;;17.61;20.84;99004.78;4756804;30;20144;-82
2022/05/04 12:16:05;;;;;;;3.88;1.10;;;;;;;17.61;20.86;99010.03;4738549;30;20191;-81
2022/05/04 12:18:33;;;;;;;1.88;1.15;;;;;;;17.80;20.85;99020.59;4740291;30;20044;-82
2022/05/04 12:21:05;;;;;;;5.15;0.98;;;;;;;17.97;21.02;99008.44;4755391;30;20135;-83
2022/05/04 12:23:31;;;;;;;7.70;1.23;;;;;;;18.41;20.39;99015.19;4744991;30;20045;-80
2022/05/04 12:25:57;;;;;;;5.55;0.88;;;;;;;19.12;19.86;98995.19;4715527;30;20060;-81